createdAt,value
2022-08-17T00:07:22.257Z,3.80
2022-08-17T00:17:24.618Z,3.70
2022-08-17T00:27:26.840Z,3.78
2022-08-17T00:37:29.337Z,4.00
2022-08-17T00:47:31.418Z,4.75
2022-08-17T00:57:41.098Z,4.65
2022-08-17T01:07:44.056Z,5.22
2022-08-17T01:17:48.840Z,4.55
2022-08-17T01:27:51.575Z,5.10
2022-08-17T01:37:54.058Z,5.47
2022-08-17T01:47:57.336Z,4.85
2022-08-17T01:58:00.818Z,5.63
2022-08-17T02:08:20.134Z,4.63
2022-08-17T02:18:23.294Z,5.13
2022-08-17T02:28:25.460Z,5.47
2022-08-17T02:38:27.749Z,5.80
2022-08-17T02:48:31.043Z,6.50
2022-08-17T02:58:35.746Z,6.40
2022-08-17T03:08:39.409Z,5.65
2022-08-17T03:18:41.405Z,6.18
2022-08-17T03:28:43.526Z,5.75
2022-08-17T03:38:45.391Z,6.47
2022-08-17T03:49:05.668Z,5.43
2022-08-17T03:59:07.731Z,5.47
2022-08-17T04:09:23.927Z,5.63
2022-08-17T04:19:25.951Z,6.25
2022-08-17T04:29:28.291Z,5.50
2022-08-17T04:40:10.443Z,5.97
2022-08-17T04:50:12.891Z,6.22
2022-08-17T05:00:15.689Z,6.93
2022-08-17T05:10:17.766Z,6.07
2022-08-17T05:20:19.489Z,6.28
2022-08-17T05:30:46.152Z,6.95
2022-08-17T05:40:57.095Z,6.38
2022-08-17T05:51:23.734Z,6.40
2022-08-17T06:01:57.371Z,5.93
2022-08-17T06:12:23.255Z,6.00
2022-08-17T06:22:31.789Z,6.93
2022-08-17T06:32:34.092Z,6.93
2022-08-17T06:43:02.269Z,8.93
2022-08-17T06:53:35.354Z,6.72
2022-08-17T07:03:47.490Z,6.60
2022-08-17T07:14:39.754Z,6.47
2022-08-17T07:25:07.731Z,7.00
2022-08-17T07:35:20.083Z,7.10
2022-08-17T07:45:42.432Z,7.75
2022-08-17T07:55:47.150Z,8.38
2022-08-17T08:05:58.971Z,8.60
2022-08-17T08:16:29.748Z,8.15
2022-08-17T08:26:52.351Z,7.13
2022-08-17T08:37:32.621Z,7.68
2022-08-17T08:47:48.641Z,8.68
2022-08-17T08:58:31.773Z,8.80
2022-08-17T09:09:04.273Z,8.95
2022-08-17T09:19:48.534Z,9.23
2022-08-17T09:30:02.382Z,8.50
2022-08-17T09:40:41.628Z,7.65
2022-08-17T10:02:05.351Z,6.82
2022-08-17T10:12:29.723Z,6.75
2022-08-17T10:23:17.311Z,7.70
2022-08-17T10:33:30.433Z,6.10
2022-08-17T10:44:36.618Z,5.68
2022-08-17T11:05:33.532Z,5.72
2022-08-17T11:15:43.072Z,5.80
2022-08-17T11:25:51.570Z,5.90
2022-08-17T11:36:17.011Z,5.45
2022-08-17T11:46:53.733Z,4.32
2022-08-17T11:57:02.970Z,3.95
2022-08-17T12:07:35.953Z,3.65
2022-08-17T12:17:50.774Z,3.33
2022-08-17T12:28:04.815Z,3.95
2022-08-17T12:38:31.934Z,4.05
2022-08-17T12:48:34.468Z,3.55
2022-08-17T12:58:57.052Z,3.63
2022-08-17T13:08:58.708Z,3.83
2022-08-17T13:19:18.090Z,3.80
2022-08-17T13:29:51.330Z,3.28
2022-08-17T13:39:59.084Z,3.55
2022-08-17T13:50:00.931Z,3.58
2022-08-17T14:00:32.912Z,3.30
2022-08-17T14:10:35.157Z,3.08
2022-08-17T14:20:37.671Z,3.45
2022-08-17T14:30:43.753Z,3.05
2022-08-17T14:40:50.073Z,2.78
2022-08-17T14:50:52.433Z,3.05
2022-08-17T15:00:54.331Z,3.13
2022-08-17T15:11:03.594Z,3.50
2022-08-17T15:21:14.652Z,2.50
2022-08-17T15:31:17.154Z,2.80
2022-08-17T15:41:21.434Z,2.70
2022-08-17T15:51:42.991Z,2.78
2022-08-17T16:03:15.264Z,3.60
2022-08-17T16:12:14.956Z,3.05
2022-08-17T16:22:18.170Z,2.83
2022-08-17T16:32:31.527Z,3.30
2022-08-17T16:42:36.894Z,3.47
2022-08-17T16:52:39.792Z,3.45
2022-08-17T17:02:49.191Z,3.05
2022-08-17T17:13:03.133Z,3.50
2022-08-17T17:23:39.109Z,3.70
2022-08-17T17:33:53.029Z,3.67
2022-08-17T17:44:09.431Z,3.70
2022-08-17T17:54:20.439Z,3.47
2022-08-17T18:04:39.071Z,3.50
2022-08-17T18:15:05.794Z,3.70
2022-08-17T18:25:46.552Z,4.60
2022-08-17T18:36:01.264Z,5.88
2022-08-17T18:46:30.008Z,3.80
2022-08-17T18:56:39.549Z,4.05
2022-08-17T19:06:42.891Z,4.18
2022-08-17T19:17:01.756Z,4.50
2022-08-17T19:27:34.923Z,3.97
2022-08-17T19:38:04.592Z,5.13
2022-08-17T19:48:50.789Z,4.40
2022-08-17T19:58:56.176Z,4.68
2022-08-17T20:09:36.990Z,4.60
2022-08-17T20:19:57.452Z,4.40
2022-08-17T20:30:11.250Z,4.18
2022-08-17T20:40:15.722Z,5.22
2022-08-17T20:50:37.252Z,5.72
2022-08-17T21:00:43.427Z,4.32
2022-08-17T21:10:48.828Z,4.07
2022-08-17T21:21:23.009Z,3.65
2022-08-17T21:32:02.130Z,3.85
2022-08-17T21:42:04.867Z,4.20
2022-08-17T21:52:09.610Z,3.90
2022-08-17T22:02:26.414Z,4.03
2022-08-17T22:12:28.512Z,4.57
2022-08-17T22:23:19.969Z,4.60
2022-08-17T22:33:50.073Z,4.60
2022-08-17T22:43:52.714Z,4.15
2022-08-17T22:54:22.848Z,4.05
2022-08-17T23:04:38.589Z,4.30
2022-08-17T23:14:42.902Z,4.38
2022-08-17T23:24:53.891Z,4.13
2022-08-17T23:34:55.732Z,5.20
2022-08-17T23:44:57.691Z,4.82
2022-08-17T23:54:59.437Z,6.38
